Terminal Aerodrome Forecast
Issued by NWS Blacksburg, VA

Home | Current Version | Previous Version | Text Only | Print | Product List | Glossary On
Versions: 1 2 3 4 5 6 7 8 9 10 11 12 13 14 15 16 17 18 19 20 21 22 23 24 25 26 27 28 29 30 31
389
FTUS41 KRNK 082335
TAFBLF
TAF
KBLF 082335Z 0900/0924 30011G18KT 6SM -SHSN SCT009 OVC014
      TEMPO 0900/0901 3SM -SHSN OVC009
     FM090300 28007KT 6SM -SHSN SCT003 OVC008
     FM091100 28012G22KT 2SM -SHSN OVC003
     FM091400 27012G18KT 6SM -SHSN OVC015=

USA.gov is the U.S. government's official web portal to all federal, state and local government web resources and services.